Time;durP1;ratioP1;P1;durP2;ratioP2;P2;SDS_P1;SDS_P2;PMS_P1;PMS_P2;Temp;Humidity;BMP_temperature;BMP_pressure;BME280_temperature;BME280_humidity;BME280_pressure;Samples;Min_cycle;Max_cycle;Signal;HPM_P1;HPM_P2
2023/06/18 00:01:21;;;;;;;5.23;2.03;;;22.00;95.90;;;21.98;44.82;100933.28;4896547;28;97618;-49
2023/06/18 00:03:46;;;;;;;2.53;1.90;;;22.00;95.90;;;22.00;44.82;100930.50;4898041;28;97223;-50
2023/06/18 00:06:12;;;;;;;2.13;1.73;;;22.00;95.90;;;22.03;44.85;100937.47;4897597;28;97521;-54
2023/06/18 00:08:38;;;;;;;5.27;2.73;;;22.00;95.90;;;22.03;44.71;100938.31;4900338;28;117598;-48
2023/06/18 00:11:04;;;;;;;3.33;1.80;;;22.00;95.90;;;22.04;44.77;100929.28;4894900;28;105794;-50
2023/06/18 00:13:30;;;;;;;2.63;1.93;;;22.00;96.00;;;22.02;44.74;100939.28;4889480;28;97165;-54
2023/06/18 00:15:56;;;;;;;2.47;2.03;;;22.00;95.90;;;22.04;44.79;100929.28;4896436;28;97708;-49
2023/06/18 00:18:21;;;;;;;2.50;1.83;;;22.00;96.00;;;22.07;44.68;100933.56;4909428;28;98668;-53
2023/06/18 00:20:48;;;;;;;3.37;2.20;;;22.00;96.00;;;22.07;44.76;100937.13;4900639;28;104931;-51
2023/06/18 00:23:14;;;;;;;3.87;2.00;;;21.90;96.00;;;22.05;44.82;100933.69;4896129;28;97662;-50
2023/06/18 00:25:41;;;;;;;2.70;2.13;;;22.00;96.00;;;22.04;44.66;100925.72;4898013;28;97564;-49
2023/06/18 00:28:07;;;;;;;3.47;1.97;;;21.90;96.00;;;21.99;45.02;100934.16;4908210;28;97251;-48
2023/06/18 00:30:33;;;;;;;2.47;1.90;;;21.90;96.00;;;21.97;44.92;100925.34;4906838;28;97155;-49
2023/06/18 00:33:00;;;;;;;2.60;1.90;;;22.00;96.00;;;21.96;44.91;100923.66;4909809;28;100120;-47
2023/06/18 00:35:25;;;;;;;3.63;1.83;;;21.90;96.10;;;21.95;45.12;100921.94;4910996;28;97246;-52
2023/06/18 00:37:52;;;;;;;2.67;2.20;;;21.90;96.10;;;21.94;45.11;100915.72;4885224;28;123399;-50
2023/06/18 00:40:18;;;;;;;3.43;2.27;;;21.90;96.10;;;21.92;45.14;100914.13;4881721;28;97376;-52
2023/06/18 00:42:44;;;;;;;2.47;2.00;;;21.90;96.10;;;21.90;45.26;100908.03;4907002;28;108232;-52
2023/06/18 00:45:12;;;;;;;2.73;2.27;;;21.90;96.10;;;21.92;45.05;100906.94;4905668;28;97416;-47
2023/06/18 00:47:44;;;;;;;4.07;2.47;;;21.90;96.20;;;21.95;45.07;100906.69;4900911;28;97420;-49
2023/06/18 00:50:14;;;;;;;5.90;2.50;;;21.90;96.10;;;21.98;45.05;100910.94;4912477;28;97338;-50
2023/06/18 00:52:44;;;;;;;3.87;2.43;;;21.90;96.20;;;21.96;45.10;100899.47;4896988;28;97651;-51
2023/06/18 00:55:16;;;;;;;4.57;2.53;;;21.90;96.10;;;21.97;45.08;100895.81;4899860;28;97116;-52
2023/06/18 00:57:44;;;;;;;3.73;2.57;;;21.90;96.10;;;21.97;45.03;100899.34;4892148;28;101187;-47
2023/06/18 01:00:12;;;;;;;3.20;2.63;;;21.90;96.10;;;22.01;44.84;100899.97;4904718;28;97687;-52
2023/06/18 01:02:45;;;;;;;2.67;2.10;;;22.00;96.20;;;22.00;44.85;100900.97;4883743;28;97264;-49
2023/06/18 01:05:12;;;;;;;4.00;2.70;;;22.00;96.20;;;22.01;44.95;100889.25;4896300;28;97432;-51
2023/06/18 01:07:40;;;;;;;2.57;2.30;;;22.00;96.20;;;22.02;45.09;100884.72;4885148;28;97628;-48
2023/06/18 01:10:06;;;;;;;3.13;2.30;;;22.00;96.10;;;22.01;44.83;100891.94;4888540;28;97110;-47
2023/06/18 01:12:33;;;;;;;2.53;2.03;;;22.00;96.20;;;22.02;44.92;100890.94;4898598;28;97055;-49
2023/06/18 01:14:59;;;;;;;2.70;1.97;;;22.00;96.20;;;22.04;44.80;100896.19;4903304;28;97492;-50
2023/06/18 01:17:33;;;;;;;3.07;2.37;;;22.00;96.20;;;22.03;44.78;100881.06;4905680;28;97601;-50
2023/06/18 01:20:09;;;;;;;3.47;2.10;;;22.00;96.20;;;22.03;44.97;100889.97;4902676;28;98613;-53
2023/06/18 01:22:57;;;;;;;3.33;2.70;;;21.90;96.20;;;22.06;44.50;100887.06;4878115;28;97395;-49
2023/06/18 01:25:25;;;;;;;2.93;2.17;;;22.00;95.80;;;22.03;44.59;100884.59;4888360;28;97602;-47
2023/06/18 01:27:53;;;;;;;2.43;1.93;;;21.90;96.00;;;22.01;45.00;100886.56;4901099;28;97435;-49
2023/06/18 01:30:20;;;;;;;3.67;2.53;;;21.90;96.20;;;22.01;45.01;100883.88;4894486;28;97365;-50
2023/06/18 01:32:46;;;;;;;2.10;1.77;;;21.90;96.30;;;22.02;44.93;100882.88;4898940;28;97038;-51
2023/06/18 01:35:15;;;;;;;4.00;2.77;;;21.90;96.30;;;22.00;45.07;100881.31;4886187;28;97486;-48
2023/06/18 01:38:14;;;;;;;2.57;2.10;;;21.90;96.30;;;21.99;44.83;100869.72;4899696;28;98542;-48
2023/06/18 01:40:45;;;;;;;3.17;2.67;;;21.90;96.40;;;22.01;44.37;100874.97;4902573;28;97146;-50
2023/06/18 01:43:42;;;;;;;5.23;3.80;;;21.90;95.60;;;21.96;44.41;100880.66;4890984;28;99507;-49
2023/06/18 01:46:11;;;;;;;4.07;2.73;;;21.80;95.60;;;21.91;44.98;100877.50;4881065;28;97753;-48
2023/06/18 01:49:06;;;;;;;4.07;3.20;;;21.70;96.10;;;21.89;44.57;100880.31;4877716;28;98928;-49
2023/06/18 01:51:35;;;;;;;4.83;2.93;;;21.60;96.00;;;21.80;44.51;100880.19;4891160;28;98205;-50
2023/06/18 01:54:03;;;;;;;5.37;3.70;;;21.50;95.80;;;21.72;44.71;100888.00;4885321;28;97486;-49
2023/06/18 01:56:30;;;;;;;6.67;3.47;;;21.40;96.10;;;21.61;44.90;100887.00;4864375;28;97541;-50
2023/06/18 02:03:27;;;;;;;4.40;3.33;;;21.10;96.70;;;21.45;46.22;100889.19;4897707;28;101435;-50
2023/06/18 02:05:52;;;;;;;4.43;2.50;;;21.00;97.60;;;21.46;46.33;100887.34;4891618;28;97500;-49
2023/06/18 02:08:18;;;;;;;2.77;2.23;;;21.10;97.70;;;21.47;46.39;100889.91;4896624;28;101181;-50
2023/06/18 02:10:44;;;;;;;2.93;2.27;;;21.20;97.70;;;21.50;46.31;100884.31;4893994;28;98170;-48
2023/06/18 02:13:10;;;;;;;3.47;2.33;;;21.20;97.70;;;21.54;45.86;100888.44;4902633;28;118270;-50
2023/06/18 02:15:36;;;;;;;5.87;3.60;;;21.30;97.40;;;21.54;45.04;100890.28;4879297;28;96760;-49
2023/06/18 02:18:03;;;;;;;5.03;3.50;;;21.30;96.60;;;21.44;45.58;100890.16;4901019;28;97239;-50
2023/06/18 02:20:29;;;;;;;2.83;2.30;;;21.10;96.90;;;21.46;46.34;100885.53;4898934;28;97773;-50
2023/06/18 02:22:55;;;;;;;3.33;2.30;;;21.10;98.00;;;21.49;46.34;100882.59;4896078;28;97356;-49
2023/06/18 02:25:28;;;;;;;3.37;2.30;;;21.20;97.80;;;21.53;46.20;100878.69;4894486;28;97530;-53
2023/06/18 02:27:57;;;;;;;3.87;2.97;;;21.30;97.60;;;21.55;45.81;100882.09;4899334;28;98041;-49
2023/06/18 02:30:28;;;;;;;3.97;2.73;;;21.30;97.00;;;21.55;46.11;100883.94;4901658;28;97452;-55
2023/06/18 02:32:58;;;;;;;2.73;2.30;;;21.30;97.70;;;21.57;46.18;100882.88;4895612;28;101012;-49
2023/06/18 02:35:26;;;;;;;4.07;2.40;;;21.30;97.60;;;21.59;46.13;100877.38;4878742;28;97402;-49
2023/06/18 02:37:52;;;;;;;3.47;2.57;;;21.40;97.60;;;21.60;45.99;100868.34;4894173;28;100144;-47
2023/06/18 02:40:18;;;;;;;2.53;2.07;;;21.40;97.30;;;21.63;45.97;100868.94;4900160;28;98322;-50
2023/06/18 02:42:50;;;;;;;6.13;3.30;;;21.50;97.50;;;21.65;45.74;100872.38;4886324;28;97361;-50
2023/06/18 02:45:21;;;;;;;7.17;4.53;;;21.50;96.90;;;21.63;45.48;100874.31;4890734;28;97293;-50
2023/06/18 02:47:49;;;;;;;6.13;4.00;;;21.40;96.40;;;21.58;45.49;100876.53;4890075;28;98493;-49
2023/06/18 02:50:16;;;;;;;5.23;3.40;;;21.30;96.60;;;21.55;45.87;100875.88;4890976;28;97960;-48
2023/06/18 02:52:43;;;;;;;4.27;2.77;;;21.20;96.90;;;21.54;46.29;100866.97;4896666;28;98942;-49
2023/06/18 02:55:11;;;;;;;3.63;2.60;;;21.20;97.80;;;21.54;46.20;100866.97;4902111;28;100135;-50
2023/06/18 02:57:38;;;;;;;4.27;2.43;;;21.30;97.90;;;21.56;46.27;100870.44;4896678;28;97325;-50
2023/06/18 03:00:11;;;;;;;3.47;2.50;;;21.30;97.80;;;21.61;46.22;100870.06;4893916;28;97809;-50
2023/06/18 03:02:39;;;;;;;4.07;2.60;;;21.40;97.60;;;21.60;46.10;100857.59;4889143;28;97138;-50
2023/06/18 03:05:06;;;;;;;3.43;2.60;;;21.40;97.40;;;21.59;46.16;100851.38;4882911;28;98370;-47
2023/06/18 03:07:31;;;;;;;3.53;2.40;;;21.40;97.60;;;21.60;46.08;100855.78;4889469;28;97195;-60
2023/06/18 03:09:57;;;;;;;4.30;2.53;;;21.40;97.70;;;21.62;46.15;100861.88;4897777;28;110436;-50
2023/06/18 03:12:24;;;;;;;4.13;2.37;;;21.40;97.70;;;21.63;46.12;100868.94;4884739;28;97252;-48
2023/06/18 03:14:50;;;;;;;5.97;3.10;;;21.40;97.50;;;21.62;45.67;100872.63;4888102;28;97023;-52
2023/06/18 03:17:15;;;;;;;5.30;3.67;;;21.40;96.90;;;21.49;45.10;100876.38;4899360;28;98117;-51
2023/06/18 03:19:41;;;;;;;3.83;2.60;;;21.20;96.60;;;21.41;46.34;100866.25;4902346;28;116563;-49
2023/06/18 03:22:07;;;;;;;3.97;2.70;;;21.00;97.60;;;21.39;46.59;100870.84;4897159;28;109599;-48
2023/06/18 03:24:34;;;;;;;2.87;2.23;;;21.00;98.50;;;21.43;46.56;100871.50;4888495;28;97185;-53
2023/06/18 03:27:00;;;;;;;2.50;2.13;;;21.10;98.40;;;21.44;46.29;100868.69;4903173;28;97453;-50
2023/06/18 03:29:28;;;;;;;3.53;2.70;;;21.10;97.50;;;21.43;46.42;100877.72;4888763;28;98318;-51
2023/06/18 03:31:55;;;;;;;3.37;2.10;;;21.10;97.60;;;21.45;46.53;100882.97;4896949;28;97253;-47
2023/06/18 03:34:21;;;;;;;3.17;2.17;;;21.20;98.30;;;21.48;46.59;100880.88;4900215;28;97039;-53
2023/06/18 03:36:49;;;;;;;2.70;2.17;;;21.20;98.20;;;21.52;46.39;100882.34;4878646;28;97074;-48
2023/06/18 03:39:15;;;;;;;2.27;1.93;;;21.30;98.10;;;21.55;46.47;100875.88;4883966;28;97295;-49
2023/06/18 03:41:42;;;;;;;2.20;1.73;;;21.30;98.00;;;21.57;46.37;100877.50;4904587;28;97260;-49
2023/06/18 03:44:08;;;;;;;3.63;2.50;;;21.40;97.80;;;21.59;46.26;100880.91;4897786;28;98642;-51
2023/06/18 03:46:35;;;;;;;4.13;2.47;;;21.40;97.90;;;21.60;46.40;100885.31;4882145;28;97242;-50
2023/06/18 03:49:01;;;;;;;4.43;2.83;;;21.40;97.90;;;21.61;46.13;100876.28;4882019;28;98518;-49
2023/06/18 03:51:27;;;;;;;2.83;2.20;;;21.50;97.80;;;21.65;46.18;100883.09;4883213;28;97076;-53
2023/06/18 03:53:53;;;;;;;3.37;2.27;;;21.50;97.70;;;21.67;46.09;100886.53;4881792;28;97508;-54
2023/06/18 03:56:23;;;;;;;3.07;2.30;;;21.60;97.70;;;21.70;46.18;100890.81;4888791;28;97344;-52
2023/06/18 03:58:49;;;;;;;3.53;2.50;;;21.60;97.60;;;21.73;46.06;100895.94;4875644;28;97733;-49
2023/06/18 04:01:15;;;;;;;3.87;2.47;;;21.60;97.60;;;21.73;46.17;100895.09;4885936;28;122401;-53
2023/06/18 04:03:41;;;;;;;4.30;2.20;;;21.70;97.90;;;21.72;46.02;100899.59;4872816;28;97589;-49
2023/06/18 04:06:07;;;;;;;2.67;1.97;;;21.70;97.50;;;21.72;46.11;100902.28;4904155;28;97131;-48
2023/06/18 04:08:36;;;;;;;3.73;2.53;;;21.70;97.50;;;21.78;45.93;100909.00;4914414;28;97537;-50
2023/06/18 04:11:02;;;;;;;3.10;2.27;;;21.70;97.50;;;21.81;45.78;100904.22;4902063;28;97752;-49
2023/06/18 04:13:28;;;;;;;3.70;2.90;;;21.70;97.40;;;21.83;45.81;100902.28;4892896;28;97335;-51
2023/06/18 04:15:54;;;;;;;3.97;2.87;;;21.70;97.40;;;21.84;45.55;100905.81;4885055;28;97501;-48
2023/06/18 04:18:20;;;;;;;5.00;3.10;;;21.70;97.20;;;21.83;45.63;100906.78;4885772;28;97758;-50
2023/06/18 04:20:46;;;;;;;3.17;2.30;;;21.70;97.40;;;21.82;45.72;100905.06;4897695;28;97661;-50
2023/06/18 04:23:13;;;;;;;3.10;2.67;;;21.70;97.40;;;21.81;45.81;100903.38;4899559;28;97352;-48
2023/06/18 04:25:39;;;;;;;2.87;2.43;;;21.70;97.40;;;21.82;45.82;100910.44;4908080;28;97360;-53
2023/06/18 04:28:05;;;;;;;2.37;2.17;;;21.70;97.30;;;21.82;45.86;100905.06;4898175;28;97179;-50
2023/06/18 04:30:31;;;;;;;3.70;2.20;;;21.70;97.40;;;21.82;45.88;100910.44;4898057;28;112102;-48
2023/06/18 04:32:57;;;;;;;3.33;2.43;;;21.70;97.40;;;21.80;45.83;100904.34;4884810;28;97470;-49
2023/06/18 04:35:22;;;;;;;2.63;2.07;;;21.70;97.40;;;21.81;45.84;100904.22;4921436;22;97894;-49
2023/06/18 04:37:49;;;;;;;3.17;2.10;;;21.70;97.40;;;21.83;45.79;100904.97;4935555;28;98114;-50
2023/06/18 04:40:15;;;;;;;3.43;2.30;;;21.80;97.40;;;21.82;45.80;100905.94;4933789;28;97608;-48
2023/06/18 04:42:40;;;;;;;3.27;2.50;;;21.80;97.40;;;21.85;45.81;100902.19;4935239;28;97369;-48
2023/06/18 04:45:09;;;;;;;2.40;2.10;;;21.80;97.40;;;21.85;45.76;100910.22;4944330;28;96860;-51
2023/06/18 04:50:10;;;;;;;3.50;2.23;;;21.80;97.30;;;21.84;45.79;100903.13;5181898;22;98061;-58
2023/06/18 04:52:36;;;;;;;3.73;2.47;;;21.80;97.30;;;21.84;45.71;100903.13;4947005;28;97484;-58
2023/06/18 04:55:02;;;;;;;3.83;2.20;;;21.80;97.30;;;21.81;45.80;100909.59;4952117;28;97468;-58
2023/06/18 04:57:28;;;;;;;3.73;2.50;;;21.80;97.30;;;21.79;45.86;100905.31;4950032;28;97517;-57
2023/06/18 04:59:54;;;;;;;3.57;2.77;;;21.80;97.30;;;21.80;45.79;100907.88;4932647;28;97153;-56
2023/06/18 05:02:20;;;;;;;3.67;2.87;;;21.80;97.30;;;21.80;45.73;100905.19;4945323;28;98197;-58
2023/06/18 05:04:45;;;;;;;4.23;2.20;;;21.80;97.30;;;21.78;45.93;100904.47;4942612;28;97151;-57
2023/06/18 05:07:11;;;;;;;4.03;2.50;;;21.80;97.30;;;21.79;45.80;100899.97;4930818;28;98544;-58
2023/06/18 05:09:37;;;;;;;3.37;2.30;;;21.80;97.30;;;21.82;45.77;100899.72;4933453;28;97227;-57
2023/06/18 05:12:03;;;;;;;3.20;2.70;;;21.80;97.30;;;21.80;45.78;100901.66;4925134;28;102869;-57
2023/06/18 05:14:29;;;;;;;2.97;2.30;;;21.80;97.30;;;21.84;45.82;100900.44;4924146;28;97625;-57
2023/06/18 05:16:55;;;;;;;4.40;3.17;;;21.80;97.20;;;21.90;44.81;100916.09;4934819;28;117828;-58
2023/06/18 05:19:21;;;;;;;4.20;2.67;;;21.80;96.20;;;21.89;45.58;100906.31;4934831;28;98478;-57
2023/06/18 05:21:46;;;;;;;3.73;2.83;;;21.80;97.20;;;21.88;45.78;100904.63;4943131;28;97055;-58
2023/06/18 05:24:12;;;;;;;3.60;2.50;;;21.80;97.20;;;21.85;45.50;100904.88;4922582;28;97437;-55
2023/06/18 05:26:38;;;;;;;3.53;2.20;;;21.80;97.20;;;21.84;45.73;100903.13;4924539;28;113015;-57
2023/06/18 05:29:04;;;;;;;3.37;2.40;;;21.80;97.20;;;21.87;45.57;100902.91;4946864;28;105770;-55
2023/06/18 05:31:29;;;;;;;3.00;2.57;;;21.80;97.20;;;21.90;45.56;100902.66;4953503;28;101274;-57
2023/06/18 05:33:55;;;;;;;3.70;2.50;;;21.90;97.20;;;21.93;45.57;100902.41;4931764;28;97615;-56
2023/06/18 05:36:24;;;;;;;3.67;2.53;;;21.90;97.10;;;21.92;45.52;100898.00;4935542;28;106976;-57
2023/06/18 05:38:52;;;;;;;3.30;2.43;;;21.90;97.20;;;21.88;45.60;100901.94;4926526;28;97687;-56
2023/06/18 05:41:18;;;;;;;5.90;2.90;;;21.90;97.20;;;21.89;45.58;100903.63;4922580;28;97750;-57
2023/06/18 05:43:44;;;;;;;3.37;2.23;;;21.90;97.20;;;21.88;45.77;100910.84;4932432;28;97272;-58
2023/06/18 05:46:10;;;;;;;2.83;1.93;;;21.90;97.10;;;21.92;45.43;100914.13;4940300;28;97885;-58
2023/06/18 05:48:36;;;;;;;4.10;2.40;;;21.90;97.10;;;21.91;45.60;100921.34;4925632;28;109241;-58
2023/06/18 05:51:01;;;;;;;3.30;2.47;;;21.90;97.10;;;21.91;45.58;100925.84;4925027;28;97271;-56
2023/06/18 05:53:27;;;;;;;3.83;2.80;;;21.90;97.10;;;21.96;44.81;100923.66;4921906;28;109641;-58
2023/06/18 05:55:53;;;;;;;3.33;2.20;;;21.90;96.40;;;21.97;45.52;100919.97;4929120;28;97849;-58
2023/06/18 05:58:19;;;;;;;2.83;1.97;;;21.90;97.00;;;21.96;45.37;100915.59;4934321;28;113009;-56
2023/06/18 06:00:45;;;;;;;2.67;2.10;;;21.90;97.10;;;21.98;45.37;100905.56;4950543;28;97409;-58
2023/06/18 06:03:11;;;;;;;2.53;2.33;;;21.90;97.00;;;21.99;45.39;100915.38;4940244;28;97078;-57
2023/06/18 06:05:36;;;;;;;4.07;3.07;;;21.90;97.00;;;22.00;45.39;100909.03;4939233;28;97141;-57
2023/06/18 06:08:03;;;;;;;4.07;2.93;;;21.90;96.70;;;22.01;44.82;100908.03;4947374;28;117906;-58
2023/06/18 06:10:28;;;;;;;2.90;2.40;;;21.90;96.70;;;22.00;45.33;100910.84;4932556;28;97604;-56
2023/06/18 06:12:54;;;;;;;4.50;2.60;;;22.00;97.00;;;22.03;44.35;100914.13;4946605;28;105960;-54
2023/06/18 06:15:20;;;;;;;5.20;3.60;;;21.90;96.10;;;22.03;43.09;100906.09;4948528;28;97985;-58
2023/06/18 06:17:46;;;;;;;5.37;2.93;;;21.90;94.90;;;21.98;45.21;100916.31;4955510;28;97512;-57
2023/06/18 06:20:12;;;;;;;2.90;2.33;;;21.90;97.00;;;21.92;45.56;100917.66;4956159;28;97440;-57
2023/06/18 06:22:38;;;;;;;4.37;3.50;;;21.90;97.00;;;22.00;43.50;100909.03;4938947;28;100595;-57
2023/06/18 06:25:04;;;;;;;6.70;3.80;;;21.90;95.60;;;22.02;42.53;100906.22;4935319;28;97407;-57
2023/06/18 06:27:30;;;;;;;4.27;2.97;;;21.90;94.80;;;22.06;42.60;100907.69;4940565;28;98346;-58
2023/06/18 06:29:56;;;;;;;3.50;2.40;;;21.90;94.90;;;22.02;44.93;100919.63;4941810;28;106274;-57
2023/06/18 06:32:23;;;;;;;3.33;2.73;;;21.90;96.50;;;22.07;44.86;100914.78;4945161;28;97018;-57
2023/06/18 06:34:48;;;;;;;4.57;3.37;;;22.00;96.50;;;22.07;42.60;100910.25;4952616;28;97107;-57
2023/06/18 06:37:14;;;;;;;3.60;2.30;;;22.00;94.80;;;22.01;45.09;100909.88;4930124;28;113726;-57
2023/06/18 06:39:40;;;;;;;4.23;2.70;;;22.00;96.70;;;22.03;44.53;100908.78;4933824;28;98140;-58
2023/06/18 06:42:06;;;;;;;3.97;3.13;;;22.00;96.50;;;22.06;42.79;100911.22;4958264;28;104998;-58
2023/06/18 06:44:32;;;;;;;4.57;3.30;;;22.00;95.00;;;22.08;43.27;100914.66;4935585;28;97261;-57
2023/06/18 06:46:58;;;;;;;4.07;3.00;;;22.00;95.40;;;22.11;42.84;100917.09;4937837;28;97488;-56
2023/06/18 06:49:23;;;;;;;4.90;3.33;;;22.00;95.00;;;22.14;42.83;100916.88;4944720;28;103657;-56
2023/06/18 06:51:55;;;;;;;4.00;2.70;;;22.10;95.20;;;22.03;44.83;100924.88;4959196;28;97521;-57
2023/06/18 06:54:21;;;;;;;3.77;2.73;;;22.00;96.40;;;22.07;44.87;100912.94;4935675;28;101603;-58
2023/06/18 06:56:47;;;;;;;3.50;2.60;;;22.00;96.20;;;21.98;45.12;100910.94;4941548;28;97086;-58
2023/06/18 06:59:13;;;;;;;4.73;3.20;;;22.00;96.60;;;21.98;45.31;100919.00;4928415;28;97178;-57
2023/06/18 07:01:43;;;;;;;4.40;2.70;;;22.00;96.80;;;22.03;45.16;100929.41;4945596;28;97485;-57
2023/06/18 07:04:10;;;;;;;4.10;2.73;;;22.00;96.70;;;22.03;45.17;100918.66;4930614;28;97412;-58
2023/06/18 07:06:38;;;;;;;3.07;2.63;;;22.00;96.50;;;21.96;45.31;100916.44;4939756;28;97790;-58
2023/06/18 07:09:05;;;;;;;3.20;2.50;;;22.00;96.70;;;21.96;45.31;100912.91;4921811;28;97224;-58
2023/06/18 07:11:33;;;;;;;4.10;2.30;;;22.00;96.80;;;21.92;45.50;100919.50;4934588;28;97349;-58
2023/06/18 07:13:59;;;;;;;5.30;3.53;;;22.00;96.80;;;21.91;44.96;100909.72;4932128;28;97504;-57
2023/06/18 07:16:25;;;;;;;3.17;2.33;;;21.90;96.60;;;21.90;45.48;100913.41;4944924;28;100853;-57
2023/06/18 07:18:51;;;;;;;4.70;2.90;;;21.90;96.80;;;22.07;42.70;100915.63;4935560;28;105747;-56
2023/06/18 07:21:17;;;;;;;2.10;1.90;;;22.10;95.00;;;21.92;45.30;100916.81;4951616;28;102578;-56
2023/06/18 07:23:43;;;;;;;2.77;2.23;;;22.00;96.60;;;21.89;45.58;100914.38;4929041;28;100120;-56
2023/06/18 07:26:09;;;;;;;2.87;2.00;;;22.00;96.80;;;21.85;45.61;100910.22;4950877;28;97175;-58
2023/06/18 07:28:35;;;;;;;4.20;2.47;;;21.90;96.90;;;21.87;45.54;100913.66;4955538;28;97591;-57
2023/06/18 07:31:01;;;;;;;3.37;2.27;;;21.90;96.80;;;21.90;45.59;100903.50;4948153;28;97580;-57
2023/06/18 07:33:27;;;;;;;5.13;3.20;;;22.00;96.90;;;22.07;44.48;100912.94;4956900;28;97667;-57
2023/06/18 07:35:53;;;;;;;4.37;2.70;;;22.10;95.80;;;22.03;45.07;100915.97;4955345;28;97202;-57
2023/06/18 07:38:19;;;;;;;3.20;2.60;;;22.10;96.60;;;21.98;45.37;100916.31;4926328;28;97134;-55
2023/06/18 07:40:45;;;;;;;3.73;2.80;;;22.00;96.60;;;22.00;45.35;100919.75;4947000;28;97406;-57
2023/06/18 07:43:11;;;;;;;4.97;4.23;;;22.00;96.70;;;21.98;44.77;100916.31;4941538;28;98696;-58
2023/06/18 07:45:38;;;;;;;4.13;3.20;;;22.00;96.40;;;22.02;44.84;100907.06;4933464;28;118220;-57
2023/06/18 07:48:04;;;;;;;4.50;3.40;;;22.00;96.40;;;22.04;45.13;100910.47;4934937;28;97428;-60
2023/06/18 07:50:30;;;;;;;4.67;3.43;;;22.10;96.60;;;22.17;44.44;100922.00;4931629;28;97378;-58
2023/06/18 07:52:55;;;;;;;3.67;3.13;;;22.10;95.90;;;22.22;44.63;100917.09;4930471;28;97675;-57
2023/06/18 07:55:21;;;;;;;4.30;3.03;;;22.20;96.20;;;22.30;44.54;100912.94;4944057;28;97187;-57
2023/06/18 07:57:47;;;;;;;5.73;3.07;;;22.30;96.20;;;22.43;43.80;100913.66;4943024;28;109576;-58
2023/06/18 08:00:13;;;;;;;4.07;2.97;;;22.40;95.50;;;22.52;43.32;100915.59;4922998;28;100317;-58
2023/06/18 08:02:39;;;;;;;3.17;2.37;;;22.50;95.30;;;22.41;44.16;100910.22;4944824;28;97522;-57
2023/06/18 08:05:07;;;;;;;4.07;2.37;;;22.50;95.70;;;22.27;44.40;100905.97;4953824;28;115512;-57
2023/06/18 08:07:32;;;;;;;4.17;2.80;;;22.40;96.00;;;22.37;44.46;100911.47;4944659;28;96941;-57
2023/06/18 08:09:58;;;;;;;4.53;3.20;;;22.40;96.00;;;22.30;44.61;100900.38;4943336;28;99057;-55
2023/06/18 08:12:25;;;;;;;4.63;3.00;;;22.40;96.10;;;22.43;44.14;100906.44;4941660;28;117042;-56
2023/06/18 08:14:50;;;;;;;5.30;3.57;;;22.40;95.80;;;22.60;42.79;100907.75;4918683;28;99966;-56
2023/06/18 08:17:17;;;;;;;5.23;3.20;;;22.60;95.00;;;22.70;43.48;100897.94;4949747;28;107262;-55
2023/06/18 08:19:47;;;;;;;4.47;3.00;;;22.80;95.10;;;22.60;43.47;100902.38;4946311;28;97212;-58
2023/06/18 08:22:15;;;;;;;5.00;3.17;;;22.60;95.20;;;22.80;40.97;100893.50;4939919;28;97224;-56
2023/06/18 08:24:41;;;;;;;4.67;3.00;;;22.80;93.00;;;22.71;41.47;100899.66;4915196;28;99925;-57
2023/06/18 08:27:08;;;;;;;6.57;3.10;;;22.80;93.90;;;22.89;42.63;100885.69;4930842;28;97375;-57
2023/06/18 08:29:34;;;;;;;3.50;2.57;;;23.00;94.10;;;22.58;43.27;100893.59;4942229;28;98401;-57
2023/06/18 08:32:04;;;;;;;2.43;2.03;;;22.70;94.70;;;22.48;44.01;100892.63;4963276;28;97825;-57
2023/06/18 08:34:32;;;;;;;3.47;2.50;;;22.60;95.40;;;22.36;44.40;100893.63;4930903;28;97171;-57
2023/06/18 08:36:58;;;;;;;4.53;3.00;;;22.50;95.60;;;22.46;44.08;100890.06;4937452;28;97292;-56
2023/06/18 08:39:24;;;;;;;4.17;2.80;;;22.50;95.80;;;22.40;44.37;100887.00;4949852;28;97588;-55
2023/06/18 08:41:50;;;;;;;5.83;3.30;;;22.40;95.80;;;22.45;42.34;100885.69;4932744;28;102319;-55
2023/06/18 08:44:16;;;;;;;4.23;2.67;;;22.50;94.40;;;22.50;43.91;100885.28;4933357;28;97476;-57
2023/06/18 08:46:45;;;;;;;4.73;2.93;;;22.60;95.50;;;22.48;43.87;100881.88;4946480;28;97130;-57
2023/06/18 08:49:14;;;;;;;6.70;3.50;;;22.50;95.40;;;22.49;43.90;100886.28;4912844;28;97495;-63
2023/06/18 08:51:43;;;;;;;4.27;3.03;;;22.50;95.20;;;22.52;43.90;100880.63;4928686;28;97832;-56
2023/06/18 08:54:21;;;;;;;4.10;2.90;;;22.60;95.40;;;22.82;41.40;100880.81;4940839;28;97400;-56
2023/06/18 08:56:55;;;;;;;3.17;2.40;;;22.80;93.30;;;22.79;42.94;100875.66;4934606;28;97729;-59
2023/06/18 08:59:21;;;;;;;3.30;2.53;;;22.90;94.30;;;22.53;43.61;100879.66;4932710;28;97837;-55
2023/06/18 09:01:48;;;;;;;6.43;2.90;;;22.70;95.00;;;22.48;44.04;100876.50;4942416;28;98309;-56
2023/06/18 09:04:14;;;;;;;5.53;2.80;;;22.60;95.40;;;22.59;41.58;100868.41;4943118;28;113520;-56
2023/06/18 09:06:42;;;;;;;5.57;3.03;;;22.60;93.30;;;22.83;38.78;100871.75;4935427;28;97911;-55
2023/06/18 09:09:08;;;;;;;4.00;2.77;;;22.80;91.60;;;23.20;37.84;100867.81;4933370;28;97291;-57
2023/06/18 09:11:34;;;;;;;3.83;2.93;;;23.20;90.40;;;23.51;36.36;100861.50;4956006;28;97498;-57
2023/06/18 09:14:00;;;;;;;3.40;2.30;;;23.60;88.60;;;23.22;40.73;100868.53;4952650;28;97990;-57
2023/06/18 09:16:26;;;;;;;2.67;2.42;;;23.40;92.50;;;23.14;41.24;100858.41;4957129;28;109943;-57
2023/06/18 09:18:52;;;;;;;3.60;2.47;;;23.30;92.70;;;22.93;42.39;100871.00;4946337;28;97577;-55
2023/06/18 09:21:40;;;;;;;7.50;2.40;;;23.10;93.70;;;22.82;43.01;100867.38;4927151;28;98791;-55
2023/06/18 09:24:15;;;;;;;2.77;2.20;;;22.90;94.30;;;22.73;43.33;100876.19;4949127;28;99325;-55
2023/06/18 09:26:41;;;;;;;3.47;2.70;;;22.80;94.40;;;22.50;43.55;100861.94;4938840;28;97721;-54
2023/06/18 09:29:09;;;;;;;4.83;2.43;;;22.70;94.80;;;22.60;43.60;100859.38;4950655;28;96940;-57
2023/06/18 09:31:37;;;;;;;4.80;2.43;;;22.70;95.00;;;22.67;43.12;100860.56;4952839;28;98569;-57
2023/06/18 09:34:15;;;;;;;3.40;2.57;;;22.70;94.70;;;22.71;42.57;100864.72;4931783;28;97486;-59
2023/06/18 09:36:43;;;;;;;3.57;2.40;;;22.70;93.90;;;22.90;36.79;100863.19;4940434;28;96721;-58
2023/06/18 09:39:25;;;;;;;2.60;2.00;;;22.90;89.00;;;22.76;42.68;100854.41;4936015;28;97466;-58
2023/06/18 09:41:53;;;;;;;5.60;2.77;;;22.90;94.20;;;22.77;42.99;100853.44;4932570;28;102305;-57
2023/06/18 09:44:21;;;;;;;3.40;2.30;;;22.90;94.30;;;22.74;42.88;100856.38;4950142;28;97596;-56
2023/06/18 09:46:58;;;;;;;3.97;2.73;;;22.80;94.30;;;23.06;35.24;100844.78;4945363;28;97181;-59
2023/06/18 09:49:25;;;;;;;3.90;2.73;;;23.10;86.70;;;23.24;34.37;100843.19;4932029;28;97384;-58
2023/06/18 09:51:53;;;;;;;3.13;2.38;;;23.30;84.00;;;23.13;41.04;100845.94;4922270;28;97470;-58
2023/06/18 09:54:20;;;;;;;4.45;2.53;;;23.30;92.70;;;23.30;39.60;100836.47;4931921;28;97194;-57
2023/06/18 09:57:00;;;;;;;3.15;2.20;;;23.50;91.20;;;23.62;33.95;100844.47;4928806;28;98327;-59
2023/06/18 09:59:27;;;;;;;3.53;2.40;;;23.70;83.60;;;23.49;38.50;100846.47;4930554;28;97363;-59
2023/06/18 10:01:54;;;;;;;3.22;2.40;;;23.60;88.90;;;23.49;39.23;100849.16;4933221;28;97355;-61
2023/06/18 10:04:21;;;;;;;3.97;2.95;;;23.70;90.30;;;23.67;36.51;100855.66;4928836;28;98699;-63
2023/06/18 10:06:54;;;;;;;4.03;2.20;;;23.90;85.20;;;23.87;34.83;100856.59;4931233;28;97278;-60
2023/06/18 10:09:22;;;;;;;3.25;2.65;;;24.00;84.00;;;24.25;34.21;100845.09;4935983;28;97626;-61
2023/06/18 10:11:52;;;;;;;3.75;2.65;;;24.40;80.70;;;24.05;37.47;100841.53;4935390;28;112010;-61
2023/06/18 10:14:23;;;;;;;3.33;2.63;;;24.30;87.70;;;23.99;35.50;100834.81;4926029;28;97948;-59
2023/06/18 10:16:53;;;;;;;3.25;2.95;;;24.20;85.60;;;24.04;34.45;100837.97;4928755;28;97486;-61
2023/06/18 10:19:25;;;;;;;6.03;3.63;;;24.20;83.40;;;24.24;36.46;100833.47;4913616;28;97272;-59